Etusivu
METAR-TAF:

METAR-TAF

Lentoasemat :

Bahrain, Bahrain

Bahrainin kansainvälinen lentoasema

Leveyspiiri: 26-16N, Pituuspiiri: 050-39E, korkeus merenpinnasta: 2 m

Tämänhetkinen sää

Tämä raportti tehtiin 26 minuuttia sitten, kello 14.30 UTC
Tuuli 7 kn pohjoisen/luoteesta
Lämpötila 23°C
Kosteus 47%
Ilmanpaine 1020 hPa
Näkyvyys 10 km tai enemmän
heikkoa sadetta

METAR: OBBI 241430Z 34007KT 9999 -RA NSC 23/11 Q1020 NOSIG

Aika: 17:56 (14:56 UTC)

Sääennuste

Tämä raportti tehtiin 3 tuntia ja 56 minuuttia sitten, kello 11.00 UTC
Ennuste voimassa 24. päivästä klo 12 UTC - 25. päivään klo 18 UTC
Tuuli 15 kn pohjoisen/luoteesta
Näkyvyys 10 km tai enemmän
Hajanaisia pilviä 3000 ft:n korkeudessa

TAF: OBBI 241100Z 2412/2518 34015KT 9999 SCT030

Säähavainnot ja -ennusteet yli 4000 lentoasemalta (METAR- ja TAF-raportit).

Käytössä olevat sääasemat on merkitty karttaan keltaisilla ja punaisilla pisteillä.

Aseta hiiri pisteen päälle nähdäksesi sääaseman nimen.

Klikkaa sitten nähdäksesi säähavainnot ja -ennusteet.

Kartan vaihtaminen: klikkaa mustalla rastilla varustettuja vihreitä pisteitä, niin voit zoomata sisään; viivalla varustettua vihreää pistettä, niin voit zoomata ulos tai vihreitä nuolia, niin pääset viereisille kartoille.


METAR-TAF: